sensor_id;sensor_type;location;lat;lon;timestamp;P1;durP1;ratioP1;P2;durP2;ratioP2
62024;SDS011;47978;49.118;12.146;2022-07-23T00:01:28;11.10;;;8.77;;
62024;SDS011;47978;49.118;12.146;2022-07-23T00:03:55;10.23;;;9.13;;
62024;SDS011;47978;49.118;12.146;2022-07-23T00:06:22;11.93;;;9.30;;
62024;SDS011;47978;49.118;12.146;2022-07-23T00:08:49;11.50;;;9.32;;
62024;SDS011;47978;49.118;12.146;2022-07-23T00:11:16;10.43;;;9.35;;
62024;SDS011;47978;49.118;12.146;2022-07-23T00:13:43;12.52;;;9.80;;
62024;SDS011;47978;49.118;12.146;2022-07-23T00:16:10;11.20;;;9.43;;
62024;SDS011;47978;49.118;12.146;2022-07-23T00:18:38;12.98;;;9.38;;
62024;SDS011;47978;49.118;12.146;2022-07-23T00:21:05;10.27;;;9.07;;
62024;SDS011;47978;49.118;12.146;2022-07-23T00:23:32;9.77;;;8.73;;
62024;SDS011;47978;49.118;12.146;2022-07-23T00:25:59;11.23;;;9.48;;
62024;SDS011;47978;49.118;12.146;2022-07-23T00:28:25;12.38;;;8.95;;
62024;SDS011;47978;49.118;12.146;2022-07-23T00:30:52;14.05;;;8.90;;
62024;SDS011;47978;49.118;12.146;2022-07-23T00:33:19;10.60;;;9.18;;
62024;SDS011;47978;49.118;12.146;2022-07-23T00:35:47;10.38;;;8.85;;
62024;SDS011;47978;49.118;12.146;2022-07-23T00:38:13;12.07;;;9.27;;
62024;SDS011;47978;49.118;12.146;2022-07-23T00:40:40;12.60;;;9.40;;
62024;SDS011;47978;49.118;12.146;2022-07-23T00:43:06;10.20;;;8.93;;
62024;SDS011;47978;49.118;12.146;2022-07-23T00:45:33;11.45;;;9.00;;
62024;SDS011;47978;49.118;12.146;2022-07-23T00:48:00;10.00;;;8.80;;
62024;SDS011;47978;49.118;12.146;2022-07-23T00:50:27;9.60;;;8.60;;
62024;SDS011;47978;49.118;12.146;2022-07-23T00:52:55;10.63;;;9.27;;
62024;SDS011;47978;49.118;12.146;2022-07-23T00:55:22;12.35;;;8.38;;
62024;SDS011;47978;49.118;12.146;2022-07-23T00:57:49;10.20;;;8.40;;
62024;SDS011;47978;49.118;12.146;2022-07-23T01:00:16;11.05;;;8.80;;
62024;SDS011;47978;49.118;12.146;2022-07-23T01:02:43;11.43;;;8.52;;
62024;SDS011;47978;49.118;12.146;2022-07-23T01:05:09;10.35;;;9.25;;
62024;SDS011;47978;49.118;12.146;2022-07-23T01:07:36;12.95;;;8.45;;
62024;SDS011;47978;49.118;12.146;2022-07-23T01:10:04;11.88;;;8.00;;
62024;SDS011;47978;49.118;12.146;2022-07-23T01:12:32;12.30;;;8.20;;
62024;SDS011;47978;49.118;12.146;2022-07-23T01:14:59;10.10;;;8.77;;
62024;SDS011;47978;49.118;12.146;2022-07-23T01:17:26;14.32;;;11.27;;
62024;SDS011;47978;49.118;12.146;2022-07-23T01:19:53;14.60;;;12.25;;
62024;SDS011;47978;49.118;12.146;2022-07-23T01:22:20;12.90;;;10.98;;
62024;SDS011;47978;49.118;12.146;2022-07-23T01:24:48;14.38;;;11.55;;
62024;SDS011;47978;49.118;12.146;2022-07-23T01:27:15;16.42;;;12.45;;
62024;SDS011;47978;49.118;12.146;2022-07-23T01:29:41;21.23;;;13.75;;
62024;SDS011;47978;49.118;12.146;2022-07-23T01:32:08;13.65;;;12.18;;
62024;SDS011;47978;49.118;12.146;2022-07-23T01:34:34;16.02;;;12.30;;
62024;SDS011;47978;49.118;12.146;2022-07-23T01:37:01;15.18;;;11.55;;
62024;SDS011;47978;49.118;12.146;2022-07-23T01:39:27;14.35;;;11.57;;
62024;SDS011;47978;49.118;12.146;2022-07-23T01:41:55;15.32;;;11.43;;
62024;SDS011;47978;49.118;12.146;2022-07-23T01:44:22;12.60;;;11.30;;
62024;SDS011;47978;49.118;12.146;2022-07-23T01:46:48;13.57;;;11.10;;
62024;SDS011;47978;49.118;12.146;2022-07-23T01:49:15;15.98;;;11.85;;
62024;SDS011;47978;49.118;12.146;2022-07-23T01:51:42;13.70;;;11.73;;
62024;SDS011;47978;49.118;12.146;2022-07-23T01:54:08;14.27;;;11.18;;
62024;SDS011;47978;49.118;12.146;2022-07-23T01:56:35;14.40;;;11.75;;
62024;SDS011;47978;49.118;12.146;2022-07-23T01:59:03;12.65;;;11.00;;
62024;SDS011;47978;49.118;12.146;2022-07-23T02:01:30;14.88;;;10.80;;
62024;SDS011;47978;49.118;12.146;2022-07-23T02:03:56;12.75;;;10.80;;
62024;SDS011;47978;49.118;12.146;2022-07-23T02:06:23;15.35;;;11.25;;
62024;SDS011;47978;49.118;12.146;2022-07-23T02:08:49;12.45;;;10.77;;
62024;SDS011;47978;49.118;12.146;2022-07-23T02:11:16;17.35;;;11.18;;
62024;SDS011;47978;49.118;12.146;2022-07-23T02:13:42;12.32;;;11.13;;
62024;SDS011;47978;49.118;12.146;2022-07-23T02:16:10;13.70;;;11.52;;
62024;SDS011;47978;49.118;12.146;2022-07-23T02:18:37;12.27;;;10.82;;
62024;SDS011;47978;49.118;12.146;2022-07-23T02:21:03;11.55;;;10.35;;
62024;SDS011;47978;49.118;12.146;2022-07-23T02:23:33;12.20;;;10.63;;
62024;SDS011;47978;49.118;12.146;2022-07-23T02:25:59;12.73;;;10.75;;
62024;SDS011;47978;49.118;12.146;2022-07-23T02:28:26;17.27;;;10.68;;
62024;SDS011;47978;49.118;12.146;2022-07-23T02:30:53;15.13;;;11.20;;
62024;SDS011;47978;49.118;12.146;2022-07-23T02:33:20;12.80;;;10.68;;
62024;SDS011;47978;49.118;12.146;2022-07-23T02:35:47;12.50;;;9.75;;
62024;SDS011;47978;49.118;12.146;2022-07-23T02:38:13;12.38;;;11.07;;
62024;SDS011;47978;49.118;12.146;2022-07-23T02:40:40;16.60;;;11.77;;
62024;SDS011;47978;49.118;12.146;2022-07-23T02:43:07;13.27;;;11.18;;
62024;SDS011;47978;49.118;12.146;2022-07-23T02:45:34;17.75;;;11.75;;
62024;SDS011;47978;49.118;12.146;2022-07-23T02:48:00;15.40;;;11.73;;
62024;SDS011;47978;49.118;12.146;2022-07-23T02:50:28;14.98;;;12.18;;
62024;SDS011;47978;49.118;12.146;2022-07-23T02:52:55;15.77;;;11.55;;
62024;SDS011;47978;49.118;12.146;2022-07-23T02:55:21;14.82;;;10.73;;
62024;SDS011;47978;49.118;12.146;2022-07-23T02:57:48;13.00;;;10.93;;
62024;SDS011;47978;49.118;12.146;2022-07-23T03:00:15;17.75;;;10.98;;
62024;SDS011;47978;49.118;12.146;2022-07-23T03:02:42;15.32;;;10.65;;
62024;SDS011;47978;49.118;12.146;2022-07-23T03:05:09;12.10;;;10.50;;
62024;SDS011;47978;49.118;12.146;2022-07-23T03:07:37;13.82;;;10.52;;
62024;SDS011;47978;49.118;12.146;2022-07-23T03:10:04;12.25;;;10.38;;
62024;SDS011;47978;49.118;12.146;2022-07-23T03:12:31;13.45;;;9.90;;
62024;SDS011;47978;49.118;12.146;2022-07-23T03:14:57;12.63;;;9.82;;
62024;SDS011;47978;49.118;12.146;2022-07-23T03:17:24;12.20;;;10.88;;
62024;SDS011;47978;49.118;12.146;2022-07-23T03:19:51;14.02;;;10.20;;
62024;SDS011;47978;49.118;12.146;2022-07-23T03:22:17;13.63;;;10.88;;
62024;SDS011;47978;49.118;12.146;2022-07-23T03:24:45;12.95;;;10.88;;
62024;SDS011;47978;49.118;12.146;2022-07-23T03:27:12;13.20;;;10.00;;
62024;SDS011;47978;49.118;12.146;2022-07-23T03:29:38;15.43;;;10.85;;
62024;SDS011;47978;49.118;12.146;2022-07-23T03:32:05;17.95;;;10.93;;
62024;SDS011;47978;49.118;12.146;2022-07-23T03:34:32;14.10;;;11.02;;
62024;SDS011;47978;49.118;12.146;2022-07-23T03:36:58;14.63;;;10.75;;
62024;SDS011;47978;49.118;12.146;2022-07-23T03:39:28;11.68;;;10.02;;
62024;SDS011;47978;49.118;12.146;2022-07-23T03:41:56;15.20;;;12.10;;
62024;SDS011;47978;49.118;12.146;2022-07-23T03:44:22;15.30;;;10.25;;
62024;SDS011;47978;49.118;12.146;2022-07-23T03:46:49;11.02;;;9.52;;
62024;SDS011;47978;49.118;12.146;2022-07-23T03:49:16;16.30;;;9.95;;
62024;SDS011;47978;49.118;12.146;2022-07-23T03:51:43;12.02;;;9.90;;
62024;SDS011;47978;49.118;12.146;2022-07-23T03:54:10;11.52;;;9.32;;
62024;SDS011;47978;49.118;12.146;2022-07-23T03:56:36;15.50;;;9.57;;
62024;SDS011;47978;49.118;12.146;2022-07-23T03:59:04;10.30;;;8.93;;
62024;SDS011;47978;49.118;12.146;2022-07-23T04:01:31;15.77;;;8.65;;
62024;SDS011;47978;49.118;12.146;2022-07-23T04:03:59;10.48;;;8.20;;
62024;SDS011;47978;49.118;12.146;2022-07-23T04:06:25;11.57;;;8.68;;
62024;SDS011;47978;49.118;12.146;2022-07-23T04:08:52;11.50;;;8.52;;
62024;SDS011;47978;49.118;12.146;2022-07-23T04:11:19;11.70;;;7.75;;
62024;SDS011;47978;49.118;12.146;2022-07-23T04:13:45;10.20;;;8.07;;
62024;SDS011;47978;49.118;12.146;2022-07-23T04:16:13;9.93;;;7.72;;
62024;SDS011;47978;49.118;12.146;2022-07-23T04:18:40;9.25;;;8.25;;
62024;SDS011;47978;49.118;12.146;2022-07-23T04:21:06;13.85;;;9.32;;
62024;SDS011;47978;49.118;12.146;2022-07-23T04:23:33;8.65;;;7.35;;
62024;SDS011;47978;49.118;12.146;2022-07-23T04:26:00;10.93;;;7.45;;
62024;SDS011;47978;49.118;12.146;2022-07-23T04:28:26;11.60;;;8.77;;
62024;SDS011;47978;49.118;12.146;2022-07-23T04:30:55;10.82;;;7.93;;
62024;SDS011;47978;49.118;12.146;2022-07-23T04:33:23;13.90;;;8.10;;
62024;SDS011;47978;49.118;12.146;2022-07-23T04:35:50;8.60;;;7.15;;
62024;SDS011;47978;49.118;12.146;2022-07-23T04:38:16;9.73;;;7.57;;
62024;SDS011;47978;49.118;12.146;2022-07-23T04:40:43;10.93;;;8.40;;
62024;SDS011;47978;49.118;12.146;2022-07-23T04:43:10;10.75;;;7.65;;
62024;SDS011;47978;49.118;12.146;2022-07-23T04:45:36;9.15;;;6.90;;
62024;SDS011;47978;49.118;12.146;2022-07-23T04:48:03;8.93;;;7.32;;
62024;SDS011;47978;49.118;12.146;2022-07-23T04:50:31;9.15;;;8.23;;
62024;SDS011;47978;49.118;12.146;2022-07-23T04:52:58;8.52;;;7.55;;
62024;SDS011;47978;49.118;12.146;2022-07-23T04:55:25;10.90;;;7.55;;
62024;SDS011;47978;49.118;12.146;2022-07-23T04:57:51;9.23;;;7.03;;
62024;SDS011;47978;49.118;12.146;2022-07-23T05:00:18;16.02;;;7.43;;
62024;SDS011;47978;49.118;12.146;2022-07-23T05:02:44;11.02;;;7.65;;
62024;SDS011;47978;49.118;12.146;2022-07-23T05:05:11;8.52;;;6.60;;
62024;SDS011;47978;49.118;12.146;2022-07-23T05:07:39;8.05;;;6.03;;
62024;SDS011;47978;49.118;12.146;2022-07-23T05:10:05;9.32;;;6.95;;
62024;SDS011;47978;49.118;12.146;2022-07-23T05:12:32;9.98;;;7.10;;
62024;SDS011;47978;49.118;12.146;2022-07-23T05:14:59;8.07;;;6.32;;
62024;SDS011;47978;49.118;12.146;2022-07-23T05:17:25;9.88;;;7.20;;
62024;SDS011;47978;49.118;12.146;2022-07-23T05:19:52;7.70;;;6.85;;
62024;SDS011;47978;49.118;12.146;2022-07-23T05:22:25;8.50;;;6.20;;
62024;SDS011;47978;49.118;12.146;2022-07-23T05:24:53;8.15;;;6.18;;
62024;SDS011;47978;49.118;12.146;2022-07-23T05:27:20;9.65;;;7.22;;
62024;SDS011;47978;49.118;12.146;2022-07-23T05:29:47;8.27;;;6.47;;
62024;SDS011;47978;49.118;12.146;2022-07-23T05:32:13;8.57;;;6.05;;
62024;SDS011;47978;49.118;12.146;2022-07-23T05:34:40;8.10;;;6.47;;
62024;SDS011;47978;49.118;12.146;2022-07-23T05:37:06;10.45;;;6.03;;
62024;SDS011;47978;49.118;12.146;2022-07-23T05:39:33;8.00;;;6.20;;
62024;SDS011;47978;49.118;12.146;2022-07-23T05:42:01;7.68;;;6.47;;
62024;SDS011;47978;49.118;12.146;2022-07-23T05:44:27;7.50;;;6.25;;
62024;SDS011;47978;49.118;12.146;2022-07-23T05:47:00;7.53;;;6.55;;
62024;SDS011;47978;49.118;12.146;2022-07-23T05:49:26;7.63;;;6.50;;
62024;SDS011;47978;49.118;12.146;2022-07-23T05:51:53;9.38;;;6.75;;
62024;SDS011;47978;49.118;12.146;2022-07-23T05:54:20;9.43;;;6.15;;
62024;SDS011;47978;49.118;12.146;2022-07-23T05:56:46;7.80;;;5.78;;
62024;SDS011;47978;49.118;12.146;2022-07-23T05:59:14;6.97;;;5.50;;
62024;SDS011;47978;49.118;12.146;2022-07-23T06:01:41;10.57;;;6.05;;
62024;SDS011;47978;49.118;12.146;2022-07-23T06:04:08;8.10;;;6.00;;
62024;SDS011;47978;49.118;12.146;2022-07-23T06:06:34;9.05;;;5.65;;
62024;SDS011;47978;49.118;12.146;2022-07-23T06:09:01;6.82;;;5.15;;
62024;SDS011;47978;49.118;12.146;2022-07-23T06:11:29;6.80;;;5.22;;
62024;SDS011;47978;49.118;12.146;2022-07-23T06:13:55;7.10;;;5.20;;
62024;SDS011;47978;49.118;12.146;2022-07-23T06:16:23;7.68;;;5.07;;
62024;SDS011;47978;49.118;12.146;2022-07-23T06:18:50;7.38;;;4.75;;
62024;SDS011;47978;49.118;12.146;2022-07-23T06:21:17;6.95;;;5.00;;
62024;SDS011;47978;49.118;12.146;2022-07-23T06:24:03;6.65;;;4.82;;
62024;SDS011;47978;49.118;12.146;2022-07-23T06:26:30;5.70;;;4.93;;
62024;SDS011;47978;49.118;12.146;2022-07-23T06:28:57;6.93;;;4.60;;
62024;SDS011;47978;49.118;12.146;2022-07-23T06:31:25;6.53;;;4.97;;
62024;SDS011;47978;49.118;12.146;2022-07-23T06:33:52;6.43;;;5.28;;
62024;SDS011;47978;49.118;12.146;2022-07-23T06:36:18;8.20;;;5.07;;
62024;SDS011;47978;49.118;12.146;2022-07-23T06:38:45;7.72;;;4.60;;
62024;SDS011;47978;49.118;12.146;2022-07-23T06:41:13;6.35;;;4.80;;
62024;SDS011;47978;49.118;12.146;2022-07-23T06:43:40;6.10;;;4.47;;
62024;SDS011;47978;49.118;12.146;2022-07-23T06:46:07;12.07;;;4.88;;
62024;SDS011;47978;49.118;12.146;2022-07-23T06:48:35;8.02;;;5.05;;
62024;SDS011;47978;49.118;12.146;2022-07-23T06:51:01;7.03;;;5.18;;
62024;SDS011;47978;49.118;12.146;2022-07-23T06:53:28;5.30;;;4.78;;
62024;SDS011;47978;49.118;12.146;2022-07-23T06:55:55;7.75;;;4.90;;
62024;SDS011;47978;49.118;12.146;2022-07-23T06:58:21;6.63;;;5.13;;
62024;SDS011;47978;49.118;12.146;2022-07-23T07:00:48;8.60;;;4.80;;
62024;SDS011;47978;49.118;12.146;2022-07-23T07:03:16;7.13;;;5.03;;
62024;SDS011;47978;49.118;12.146;2022-07-23T07:05:44;8.93;;;5.25;;
62024;SDS011;47978;49.118;12.146;2022-07-23T07:08:10;5.53;;;4.65;;
62024;SDS011;47978;49.118;12.146;2022-07-23T07:10:37;6.32;;;5.03;;
62024;SDS011;47978;49.118;12.146;2022-07-23T07:13:04;7.47;;;4.80;;
62024;SDS011;47978;49.118;12.146;2022-07-23T07:15:30;8.23;;;4.95;;
62024;SDS011;47978;49.118;12.146;2022-07-23T07:17:57;8.43;;;5.13;;
62024;SDS011;47978;49.118;12.146;2022-07-23T07:20:23;8.43;;;5.10;;
62024;SDS011;47978;49.118;12.146;2022-07-23T07:22:51;6.93;;;5.05;;
62024;SDS011;47978;49.118;12.146;2022-07-23T07:25:18;6.95;;;4.45;;
62024;SDS011;47978;49.118;12.146;2022-07-23T07:27:44;6.95;;;4.90;;
62024;SDS011;47978;49.118;12.146;2022-07-23T07:30:11;14.25;;;5.07;;
62024;SDS011;47978;49.118;12.146;2022-07-23T07:32:38;6.82;;;5.10;;
62024;SDS011;47978;49.118;12.146;2022-07-23T07:35:22;6.18;;;4.22;;
62024;SDS011;47978;49.118;12.146;2022-07-23T07:37:49;5.32;;;4.38;;
62024;SDS011;47978;49.118;12.146;2022-07-23T07:40:17;4.85;;;4.35;;
62024;SDS011;47978;49.118;12.146;2022-07-23T07:42:45;5.25;;;3.97;;
62024;SDS011;47978;49.118;12.146;2022-07-23T07:45:12;5.70;;;4.60;;
62024;SDS011;47978;49.118;12.146;2022-07-23T07:47:38;4.78;;;3.90;;
62024;SDS011;47978;49.118;12.146;2022-07-23T07:50:05;6.57;;;4.00;;
62024;SDS011;47978;49.118;12.146;2022-07-23T07:52:32;5.53;;;4.53;;
62024;SDS011;47978;49.118;12.146;2022-07-23T07:54:58;5.22;;;4.22;;
62024;SDS011;47978;49.118;12.146;2022-07-23T07:57:26;5.68;;;4.18;;
62024;SDS011;47978;49.118;12.146;2022-07-23T07:59:56;6.80;;;4.43;;
62024;SDS011;47978;49.118;12.146;2022-07-23T08:02:38;5.78;;;4.28;;
62024;SDS011;47978;49.118;12.146;2022-07-23T08:05:06;4.80;;;3.90;;
62024;SDS011;47978;49.118;12.146;2022-07-23T08:07:33;8.98;;;4.75;;
62024;SDS011;47978;49.118;12.146;2022-07-23T08:10:00;4.55;;;3.70;;
62024;SDS011;47978;49.118;12.146;2022-07-23T08:12:28;5.05;;;3.63;;
62024;SDS011;47978;49.118;12.146;2022-07-23T08:15:04;5.88;;;4.10;;
62024;SDS011;47978;49.118;12.146;2022-07-23T08:17:39;4.68;;;3.65;;
62024;SDS011;47978;49.118;12.146;2022-07-23T08:20:06;7.15;;;3.90;;
62024;SDS011;47978;49.118;12.146;2022-07-23T08:22:45;6.65;;;3.90;;
62024;SDS011;47978;49.118;12.146;2022-07-23T08:25:15;6.75;;;3.92;;
62024;SDS011;47978;49.118;12.146;2022-07-23T08:27:44;4.65;;;3.78;;
62024;SDS011;47978;49.118;12.146;2022-07-23T08:30:11;5.07;;;3.45;;
62024;SDS011;47978;49.118;12.146;2022-07-23T08:32:47;5.35;;;4.00;;
62024;SDS011;47978;49.118;12.146;2022-07-23T08:35:17;5.57;;;3.78;;
62024;SDS011;47978;49.118;12.146;2022-07-23T08:37:47;7.80;;;4.03;;
62024;SDS011;47978;49.118;12.146;2022-07-23T08:40:14;4.00;;;3.60;;
62024;SDS011;47978;49.118;12.146;2022-07-23T08:42:40;4.63;;;3.40;;
62024;SDS011;47978;49.118;12.146;2022-07-23T08:45:08;4.13;;;3.67;;
62024;SDS011;47978;49.118;12.146;2022-07-23T08:47:35;10.80;;;3.72;;
62024;SDS011;47978;49.118;12.146;2022-07-23T08:50:04;4.65;;;3.45;;
62024;SDS011;47978;49.118;12.146;2022-07-23T08:52:33;4.47;;;3.22;;
62024;SDS011;47978;49.118;12.146;2022-07-23T08:55:00;4.63;;;3.33;;
62024;SDS011;47978;49.118;12.146;2022-07-23T08:57:27;4.03;;;3.30;;
62024;SDS011;47978;49.118;12.146;2022-07-23T08:59:54;4.18;;;3.47;;
62024;SDS011;47978;49.118;12.146;2022-07-23T09:02:22;4.75;;;3.60;;
62024;SDS011;47978;49.118;12.146;2022-07-23T09:04:48;5.25;;;4.07;;
62024;SDS011;47978;49.118;12.146;2022-07-23T09:07:15;7.43;;;4.20;;
62024;SDS011;47978;49.118;12.146;2022-07-23T09:09:42;4.97;;;3.67;;
62024;SDS011;47978;49.118;12.146;2022-07-23T09:12:09;4.85;;;3.90;;
62024;SDS011;47978;49.118;12.146;2022-07-23T09:14:37;4.63;;;3.78;;
62024;SDS011;47978;49.118;12.146;2022-07-23T09:17:08;4.60;;;4.10;;
62024;SDS011;47978;49.118;12.146;2022-07-23T09:19:37;4.40;;;3.70;;
62024;SDS011;47978;49.118;12.146;2022-07-23T09:22:17;6.22;;;4.45;;
62024;SDS011;47978;49.118;12.146;2022-07-23T09:25:03;6.13;;;4.25;;
62024;SDS011;47978;49.118;12.146;2022-07-23T09:27:48;4.53;;;4.03;;
62024;SDS011;47978;49.118;12.146;2022-07-23T09:30:21;7.13;;;4.15;;
62024;SDS011;47978;49.118;12.146;2022-07-23T09:33:04;4.72;;;4.10;;
62024;SDS011;47978;49.118;12.146;2022-07-23T09:35:50;8.65;;;4.20;;
62024;SDS011;47978;49.118;12.146;2022-07-23T09:38:18;5.03;;;4.18;;
62024;SDS011;47978;49.118;12.146;2022-07-23T09:40:46;5.43;;;4.20;;
62024;SDS011;47978;49.118;12.146;2022-07-23T09:43:30;6.25;;;3.88;;
62024;SDS011;47978;49.118;12.146;2022-07-23T09:48:46;4.45;;;3.25;;
62024;SDS011;47978;49.118;12.146;2022-07-23T09:51:14;4.68;;;3.92;;
62024;SDS011;47978;49.118;12.146;2022-07-23T09:53:41;5.30;;;3.90;;
62024;SDS011;47978;49.118;12.146;2022-07-23T09:56:08;5.20;;;3.55;;
62024;SDS011;47978;49.118;12.146;2022-07-23T09:58:36;4.55;;;3.88;;
62024;SDS011;47978;49.118;12.146;2022-07-23T10:01:06;4.63;;;3.60;;
62024;SDS011;47978;49.118;12.146;2022-07-23T10:03:33;4.28;;;3.40;;
62024;SDS011;47978;49.118;12.146;2022-07-23T10:05:59;4.68;;;4.03;;
62024;SDS011;47978;49.118;12.146;2022-07-23T10:08:27;6.25;;;4.10;;
62024;SDS011;47978;49.118;12.146;2022-07-23T10:10:56;4.10;;;3.60;;
62024;SDS011;47978;49.118;12.146;2022-07-23T10:13:23;5.72;;;4.10;;
62024;SDS011;47978;49.118;12.146;2022-07-23T10:15:50;4.53;;;3.80;;
62024;SDS011;47978;49.118;12.146;2022-07-23T10:18:18;7.45;;;3.85;;
62024;SDS011;47978;49.118;12.146;2022-07-23T10:20:45;4.43;;;4.03;;
62024;SDS011;47978;49.118;12.146;2022-07-23T10:23:14;9.20;;;5.03;;
62024;SDS011;47978;49.118;12.146;2022-07-23T10:25:51;6.20;;;3.65;;
62024;SDS011;47978;49.118;12.146;2022-07-23T10:28:41;4.13;;;3.70;;
62024;SDS011;47978;49.118;12.146;2022-07-23T10:31:20;6.22;;;4.05;;
62024;SDS011;47978;49.118;12.146;2022-07-23T10:34:17;5.93;;;3.90;;
62024;SDS011;47978;49.118;12.146;2022-07-23T10:36:49;5.50;;;3.80;;
62024;SDS011;47978;49.118;12.146;2022-07-23T10:39:19;5.77;;;3.50;;
62024;SDS011;47978;49.118;12.146;2022-07-23T10:41:50;4.88;;;3.67;;
62024;SDS011;47978;49.118;12.146;2022-07-23T10:44:17;5.10;;;3.90;;
62024;SDS011;47978;49.118;12.146;2022-07-23T10:46:58;8.23;;;6.70;;
62024;SDS011;47978;49.118;12.146;2022-07-23T10:49:29;9.82;;;5.47;;
62024;SDS011;47978;49.118;12.146;2022-07-23T10:52:16;6.03;;;5.20;;
62024;SDS011;47978;49.118;12.146;2022-07-23T10:54:47;6.78;;;5.95;;
62024;SDS011;47978;49.118;12.146;2022-07-23T10:57:17;6.97;;;5.40;;
62024;SDS011;47978;49.118;12.146;2022-07-23T11:02:44;8.27;;;5.40;;
62024;SDS011;47978;49.118;12.146;2022-07-23T11:05:12;6.80;;;5.05;;
62024;SDS011;47978;49.118;12.146;2022-07-23T11:10:41;7.35;;;5.57;;
62024;SDS011;47978;49.118;12.146;2022-07-23T11:16:07;8.02;;;6.50;;
62024;SDS011;47978;49.118;12.146;2022-07-23T11:21:49;8.32;;;6.20;;
62024;SDS011;47978;49.118;12.146;2022-07-23T11:24:17;9.77;;;6.43;;
62024;SDS011;47978;49.118;12.146;2022-07-23T11:26:46;8.25;;;6.75;;
62024;SDS011;47978;49.118;12.146;2022-07-23T11:29:44;7.47;;;5.82;;
62024;SDS011;47978;49.118;12.146;2022-07-23T11:32:35;9.35;;;6.13;;
62024;SDS011;47978;49.118;12.146;2022-07-23T11:35:19;6.80;;;5.45;;
62024;SDS011;47978;49.118;12.146;2022-07-23T11:37:51;6.15;;;5.28;;
62024;SDS011;47978;49.118;12.146;2022-07-23T11:40:18;6.78;;;5.57;;
62024;SDS011;47978;49.118;12.146;2022-07-23T11:42:51;9.80;;;5.20;;
62024;SDS011;47978;49.118;12.146;2022-07-23T11:45:21;6.10;;;4.97;;
62024;SDS011;47978;49.118;12.146;2022-07-23T11:47:48;8.00;;;5.45;;
62024;SDS011;47978;49.118;12.146;2022-07-23T11:50:15;8.68;;;5.53;;
62024;SDS011;47978;49.118;12.146;2022-07-23T11:52:41;6.13;;;5.00;;
62024;SDS011;47978;49.118;12.146;2022-07-23T11:55:08;5.22;;;4.72;;
62024;SDS011;47978;49.118;12.146;2022-07-23T11:57:37;5.97;;;4.80;;
62024;SDS011;47978;49.118;12.146;2022-07-23T12:00:07;4.93;;;4.30;;
62024;SDS011;47978;49.118;12.146;2022-07-23T12:02:37;10.87;;;4.67;;
62024;SDS011;47978;49.118;12.146;2022-07-23T12:05:05;4.93;;;4.10;;
62024;SDS011;47978;49.118;12.146;2022-07-23T12:07:33;7.47;;;4.60;;
62024;SDS011;47978;49.118;12.146;2022-07-23T12:10:02;14.02;;;7.45;;
62024;SDS011;47978;49.118;12.146;2022-07-23T12:12:34;15.82;;;10.13;;
62024;SDS011;47978;49.118;12.146;2022-07-23T12:15:02;18.55;;;11.48;;
62024;SDS011;47978;49.118;12.146;2022-07-23T12:17:30;11.82;;;7.75;;
62024;SDS011;47978;49.118;12.146;2022-07-23T12:22:34;13.68;;;9.50;;
62024;SDS011;47978;49.118;12.146;2022-07-23T12:25:03;14.75;;;8.57;;
62024;SDS011;47978;49.118;12.146;2022-07-23T12:27:31;12.20;;;7.47;;
62024;SDS011;47978;49.118;12.146;2022-07-23T12:29:58;8.55;;;5.97;;
62024;SDS011;47978;49.118;12.146;2022-07-23T12:32:25;8.48;;;6.75;;
62024;SDS011;47978;49.118;12.146;2022-07-23T12:35:03;8.68;;;5.45;;
62024;SDS011;47978;49.118;12.146;2022-07-23T12:37:32;5.63;;;4.22;;
62024;SDS011;47978;49.118;12.146;2022-07-23T12:42:54;4.93;;;4.43;;
62024;SDS011;47978;49.118;12.146;2022-07-23T12:45:22;6.40;;;4.78;;
62024;SDS011;47978;49.118;12.146;2022-07-23T12:48:00;5.25;;;4.15;;
62024;SDS011;47978;49.118;12.146;2022-07-23T12:50:32;11.75;;;4.57;;
62024;SDS011;47978;49.118;12.146;2022-07-23T12:53:07;5.22;;;4.25;;
62024;SDS011;47978;49.118;12.146;2022-07-23T12:55:45;5.45;;;4.15;;
62024;SDS011;47978;49.118;12.146;2022-07-23T12:58:40;5.88;;;4.20;;
62024;SDS011;47978;49.118;12.146;2022-07-23T13:01:08;5.65;;;4.22;;
62024;SDS011;47978;49.118;12.146;2022-07-23T13:03:38;5.28;;;4.75;;
62024;SDS011;47978;49.118;12.146;2022-07-23T13:06:08;6.18;;;4.68;;
62024;SDS011;47978;49.118;12.146;2022-07-23T13:08:37;6.85;;;4.50;;
62024;SDS011;47978;49.118;12.146;2022-07-23T13:11:05;5.25;;;4.60;;
62024;SDS011;47978;49.118;12.146;2022-07-23T13:13:33;5.55;;;4.35;;
62024;SDS011;47978;49.118;12.146;2022-07-23T13:16:01;6.00;;;4.78;;
62024;SDS011;47978;49.118;12.146;2022-07-23T13:18:36;6.03;;;4.90;;
62024;SDS011;47978;49.118;12.146;2022-07-23T13:21:02;7.75;;;4.95;;
62024;SDS011;47978;49.118;12.146;2022-07-23T13:23:32;5.63;;;4.50;;
62024;SDS011;47978;49.118;12.146;2022-07-23T13:25:59;6.47;;;5.28;;
62024;SDS011;47978;49.118;12.146;2022-07-23T13:28:25;5.93;;;4.38;;
62024;SDS011;47978;49.118;12.146;2022-07-23T13:30:52;6.32;;;4.53;;
62024;SDS011;47978;49.118;12.146;2022-07-23T13:33:20;5.75;;;5.15;;
62024;SDS011;47978;49.118;12.146;2022-07-23T13:35:52;6.45;;;5.20;;
62024;SDS011;47978;49.118;12.146;2022-07-23T13:38:21;6.22;;;5.35;;
62024;SDS011;47978;49.118;12.146;2022-07-23T13:40:50;5.55;;;5.05;;
62024;SDS011;47978;49.118;12.146;2022-07-23T13:43:18;7.38;;;5.10;;
62024;SDS011;47978;49.118;12.146;2022-07-23T13:45:48;5.40;;;4.80;;
62024;SDS011;47978;49.118;12.146;2022-07-23T13:48:15;5.28;;;4.68;;
62024;SDS011;47978;49.118;12.146;2022-07-23T13:50:43;5.97;;;4.90;;
62024;SDS011;47978;49.118;12.146;2022-07-23T13:53:12;5.88;;;4.80;;
62024;SDS011;47978;49.118;12.146;2022-07-23T13:55:40;5.82;;;4.78;;
62024;SDS011;47978;49.118;12.146;2022-07-23T13:58:15;7.43;;;4.88;;
62024;SDS011;47978;49.118;12.146;2022-07-23T14:00:43;5.13;;;4.45;;
62024;SDS011;47978;49.118;12.146;2022-07-23T14:03:19;7.35;;;4.43;;
62024;SDS011;47978;49.118;12.146;2022-07-23T14:05:47;6.13;;;4.50;;
62024;SDS011;47978;49.118;12.146;2022-07-23T14:08:14;4.55;;;4.00;;
62024;SDS011;47978;49.118;12.146;2022-07-23T14:10:40;7.35;;;4.53;;
62024;SDS011;47978;49.118;12.146;2022-07-23T14:13:08;7.13;;;4.50;;
62024;SDS011;47978;49.118;12.146;2022-07-23T14:15:36;4.68;;;4.18;;
62024;SDS011;47978;49.118;12.146;2022-07-23T14:18:03;5.10;;;4.22;;
62024;SDS011;47978;49.118;12.146;2022-07-23T14:20:30;5.35;;;4.50;;
62024;SDS011;47978;49.118;12.146;2022-07-23T14:22:57;4.60;;;3.63;;
62024;SDS011;47978;49.118;12.146;2022-07-23T14:25:26;4.70;;;4.10;;
62024;SDS011;47978;49.118;12.146;2022-07-23T14:27:52;6.45;;;4.57;;
62024;SDS011;47978;49.118;12.146;2022-07-23T14:30:19;4.97;;;4.10;;
62024;SDS011;47978;49.118;12.146;2022-07-23T14:32:50;4.70;;;4.13;;
62024;SDS011;47978;49.118;12.146;2022-07-23T14:35:17;6.47;;;4.30;;
62024;SDS011;47978;49.118;12.146;2022-07-23T14:37:45;5.60;;;4.30;;
62024;SDS011;47978;49.118;12.146;2022-07-23T14:40:11;4.70;;;3.72;;
62024;SDS011;47978;49.118;12.146;2022-07-23T14:42:38;6.10;;;4.22;;
62024;SDS011;47978;49.118;12.146;2022-07-23T14:45:05;5.20;;;4.38;;
62024;SDS011;47978;49.118;12.146;2022-07-23T14:47:35;4.70;;;4.25;;
62024;SDS011;47978;49.118;12.146;2022-07-23T14:50:04;4.93;;;4.13;;
62024;SDS011;47978;49.118;12.146;2022-07-23T14:52:31;5.00;;;4.50;;
62024;SDS011;47978;49.118;12.146;2022-07-23T14:54:58;4.47;;;3.80;;
62024;SDS011;47978;49.118;12.146;2022-07-23T14:57:25;5.40;;;4.07;;